Time;durP1;ratioP1;P1;durP2;ratioP2;P2;SDS_P1;SDS_P2;PMS_P1;PMS_P2;Temp;Humidity;BMP_temperature;BMP_pressure;BME280_temperature;BME280_humidity;BME280_pressure;Samples;Min_cycle;Max_cycle;Signal;HPM_P1;HPM_P2
2023/10/06 00:01:42;;;;;;;4.80;2.17;;;;;;;24.39;44.58;100116.47;5091851;28;20028;-72
2023/10/06 00:04:12;;;;;;;4.43;2.35;;;;;;;24.39;44.73;100127.13;5091538;28;20048;-72
2023/10/06 00:06:48;;;;;;;4.03;2.30;;;;;;;24.36;44.77;100122.00;5091939;28;20013;-73
2023/10/06 00:09:36;;;;;;;4.47;2.45;;;;;;;24.37;44.52;100133.53;5091418;28;20493;-72
2023/10/06 00:12:05;;;;;;;4.53;2.38;;;;;;;24.35;44.51;100122.94;5089760;28;20044;-71
2023/10/06 00:14:39;;;;;;;5.20;2.30;;;;;;;24.33;44.92;100124.88;5091591;28;20498;-72
2023/10/06 00:17:12;;;;;;;3.67;1.95;;;;;;;24.31;44.79;100124.09;5091584;28;20085;-72
2023/10/06 00:19:41;;;;;;;3.67;2.17;;;;;;;24.32;44.72;100115.16;5091860;28;20032;-72
2023/10/06 00:24:37;;;;;;;4.68;2.53;;;;;;;24.31;44.83;100120.59;5091844;28;20400;-72
2023/10/06 00:27:10;;;;;;;4.22;2.20;;;;;;;24.30;44.68;100121.56;5091842;28;20110;-72
2023/10/06 00:29:37;;;;;;;3.85;2.30;;;;;;;24.28;44.74;100124.31;5095489;28;20532;-71
2023/10/06 00:32:21;;;;;;;4.45;2.45;;;;;;;24.27;44.75;100122.59;5096780;28;20052;-72
2023/10/06 00:34:47;;;;;;;3.85;1.90;;;;;;;24.28;44.65;100121.66;5113498;28;20063;-72
2023/10/06 00:37:14;;;;;;;4.65;2.53;;;;;;;24.26;44.79;100112.91;5095347;28;20024;-72
2023/10/06 00:39:39;;;;;;;4.97;2.65;;;;;;;24.28;44.63;100113.66;5095645;28;20063;-71
2023/10/06 00:42:06;;;;;;;4.35;2.47;;;;;;;24.26;44.69;100107.56;5095518;28;20078;-72
2023/10/06 00:44:32;;;;;;;4.13;2.47;;;;;;;24.26;44.76;100104.91;5095478;28;20047;-72
2023/10/06 00:46:58;;;;;;;4.30;2.03;;;;;;;24.25;44.62;100108.50;5095268;28;20476;-72
2023/10/06 00:49:28;;;;;;;3.95;2.00;;;;;;;24.23;44.57;100113.09;5095250;28;20035;-72
2023/10/06 00:51:55;;;;;;;4.47;2.42;;;;;;;24.20;44.82;100111.47;5095310;28;20051;-72
2023/10/06 00:54:25;;;;;;;4.35;2.38;;;;;;;24.21;44.69;100109.66;5095518;28;20042;-71
2023/10/06 00:56:52;;;;;;;4.63;2.60;;;;;;;24.19;44.75;100111.56;5094039;28;20107;-72
2023/10/06 00:59:17;;;;;;;4.13;2.08;;;;;;;24.18;44.89;100112.53;5095312;28;20036;-72
2023/10/06 01:01:43;;;;;;;4.80;2.30;;;;;;;24.18;44.85;100107.19;5095037;28;20054;-71
2023/10/06 01:04:08;;;;;;;4.53;2.40;;;;;;;24.17;44.83;100110.81;5094632;28;20044;-72
2023/10/06 01:06:41;;;;;;;4.47;2.08;;;;;;;24.17;44.77;100110.81;5094792;28;20073;-72
2023/10/06 01:11:45;;;;;;;4.28;1.88;;;;;;;24.17;44.81;100102.81;5094766;28;20027;-71
2023/10/06 01:14:11;;;;;;;3.28;1.83;;;;;;;24.16;44.81;100101.09;5093553;28;20051;-70
2023/10/06 01:16:36;;;;;;;4.13;2.00;;;;;;;24.12;44.48;100106.63;5094613;28;20463;-72
2023/10/06 01:19:17;;;;;;;4.90;2.35;;;;;;;24.13;44.84;100100.34;5094128;28;20391;-71
2023/10/06 01:21:47;;;;;;;4.70;2.40;;;;;;;24.11;44.83;100102.25;5094731;28;20545;-72
2023/10/06 01:24:26;;;;;;;3.78;2.10;;;;;;;24.09;44.61;100104.19;5094601;28;20028;-72
2023/10/06 01:26:53;;;;;;;4.53;2.35;;;;;;;24.08;44.71;100099.81;5094959;28;20077;-71
2023/10/06 01:29:29;;;;;;;4.47;2.40;;;;;;;24.07;44.87;100100.72;5094680;28;20107;-71
2023/10/06 01:31:55;;;;;;;4.07;2.00;;;;;;;24.06;44.86;100104.31;5094408;28;20379;-72
2023/10/06 01:34:20;;;;;;;3.80;2.15;;;;;;;24.04;44.93;100098.25;5094266;28;20039;-72
2023/10/06 01:36:51;;;;;;;4.22;2.20;;;;;;;24.04;44.76;100105.38;5094457;28;20020;-72
2023/10/06 01:39:25;;;;;;;4.63;2.17;;;;;;;24.03;44.90;100098.34;5094034;28;20070;-71
2023/10/06 01:41:51;;;;;;;4.32;2.10;;;;;;;23.99;44.76;100087.03;5094469;28;20546;-72
2023/10/06 01:44:17;;;;;;;4.03;2.30;;;;;;;23.99;44.87;100097.69;5094567;28;20016;-71
2023/10/06 01:46:44;;;;;;;5.03;2.63;;;;;;;23.99;44.72;100092.34;5094552;28;20020;-72
2023/10/06 01:49:10;;;;;;;4.63;2.40;;;;;;;23.98;44.90;100088.81;5094017;28;20032;-72
2023/10/06 01:51:39;;;;;;;3.88;2.30;;;;;;;23.96;44.93;100092.53;5094368;28;20495;-72
2023/10/06 01:54:07;;;;;;;4.82;2.30;;;;;;;23.93;44.75;100090.06;5093798;28;20024;-73
2023/10/06 01:56:36;;;;;;;4.25;2.47;;;;;;;23.94;45.04;100089.13;5094390;28;20028;-72
2023/10/06 01:59:04;;;;;;;4.50;2.38;;;;;;;23.93;44.90;100092.75;5093930;28;20031;-72
2023/10/06 02:01:29;;;;;;;4.72;2.30;;;;;;;23.91;45.08;100092.00;5094081;28;20444;-72
2023/10/06 02:03:55;;;;;;;5.15;2.45;;;;;;;23.90;45.03;100088.47;5093385;28;20075;-72
2023/10/06 02:06:20;;;;;;;4.22;2.38;;;;;;;23.90;44.90;100087.59;5093768;28;20535;-71
2023/10/06 02:08:52;;;;;;;5.40;2.50;;;;;;;23.86;44.84;100087.81;5093642;28;20034;-72
2023/10/06 02:11:21;;;;;;;4.80;2.63;;;;;;;23.85;44.87;100091.44;5093943;28;20030;-72
2023/10/06 02:13:47;;;;;;;4.22;2.20;;;;;;;23.86;44.73;100093.13;5093530;28;20036;-71
2023/10/06 02:16:12;;;;;;;4.18;2.28;;;;;;;23.85;44.80;100091.44;5092214;28;20413;-72
2023/10/06 02:18:39;;;;;;;4.53;2.30;;;;;;;23.84;44.95;100088.84;5092465;28;20112;-72
2023/10/06 02:21:11;;;;;;;4.35;2.22;;;;;;;23.84;44.69;100089.72;5093763;28;20024;-72
2023/10/06 02:23:42;;;;;;;4.80;2.50;;;;;;;23.82;45.25;100096.09;5093660;28;20027;-72
2023/10/06 02:26:12;;;;;;;5.28;2.10;;;;;;;23.82;45.12;100094.28;5093774;28;20028;-72
2023/10/06 02:28:48;;;;;;;4.63;2.38;;;;;;;23.82;44.77;100090.78;5093404;28;20032;-72
2023/10/06 02:31:15;;;;;;;4.63;2.55;;;;;;;23.80;44.89;100090.84;5093112;28;20116;-72
2023/10/06 02:33:42;;;;;;;4.07;2.08;;;;;;;23.79;44.87;100088.28;5093271;28;20032;-73
2023/10/06 02:36:23;;;;;;;4.20;2.40;;;;;;;23.78;44.88;100089.25;5093125;28;20077;-72
2023/10/06 02:38:49;;;;;;;3.90;2.25;;;;;;;23.78;44.74;100095.41;5093485;28;20024;-72
2023/10/06 02:41:29;;;;;;;6.13;2.75;;;;;;;23.77;44.96;100093.69;5093204;28;20031;-72
2023/10/06 02:43:55;;;;;;;4.38;2.40;;;;;;;23.76;44.90;100097.31;5093290;28;20066;-73
2023/10/06 02:46:22;;;;;;;5.30;2.20;;;;;;;23.75;44.97;100090.28;5125936;27;20027;-72
2023/10/06 02:48:51;;;;;;;5.47;2.50;;;;;;;23.75;45.00;100090.28;5093328;28;20028;-72
2023/10/06 02:51:30;;;;;;;4.65;2.17;;;;;;;23.74;44.79;100093.91;5092005;28;20035;-71
2023/10/06 02:54:13;;;;;;;5.75;2.20;;;;;;;23.76;44.75;100092.00;5091945;28;20032;-72
2023/10/06 02:56:40;;;;;;;4.82;2.63;;;;;;;23.73;44.77;100102.88;5093286;28;20107;-72
2023/10/06 02:59:25;;;;;;;5.15;2.63;;;;;;;23.75;44.79;100098.28;5093332;28;20094;-72
2023/10/06 03:01:54;;;;;;;4.72;2.05;;;;;;;23.74;44.90;100099.25;5093055;28;20028;-72
2023/10/06 03:04:25;;;;;;;4.07;2.10;;;;;;;23.75;44.78;100100.94;5092847;28;20526;-71
2023/10/06 03:06:55;;;;;;;4.10;2.22;;;;;;;23.72;44.93;100094.00;5093127;28;20035;-73
2023/10/06 03:09:27;;;;;;;4.63;2.60;;;;;;;23.71;44.86;100100.28;5092870;28;20020;-72
2023/10/06 03:11:57;;;;;;;4.47;2.13;;;;;;;23.73;44.83;100093.03;5091659;28;20413;-72
2023/10/06 03:14:37;;;;;;;4.28;2.30;;;;;;;23.73;44.75;100097.53;5092205;28;20069;-72
2023/10/06 03:17:08;;;;;;;5.25;2.42;;;;;;;23.74;44.74;100104.56;5092734;28;20084;-72
2023/10/06 03:19:40;;;;;;;4.22;2.42;;;;;;;23.71;44.89;100100.28;5092753;28;20102;-72
2023/10/06 03:22:09;;;;;;;5.35;2.30;;;;;;;23.69;44.89;100090.69;5092583;28;20551;-72
2023/10/06 03:24:40;;;;;;;4.30;2.25;;;;;;;23.71;44.72;100100.28;5092924;28;20027;-72
2023/10/06 03:27:12;;;;;;;5.15;2.58;;;;;;;23.71;44.59;100099.41;5092830;28;20032;-72
2023/10/06 03:29:54;;;;;;;5.03;2.20;;;;;;;23.68;44.57;100096.97;5091758;28;20035;-72
2023/10/06 03:32:39;;;;;;;3.85;2.30;;;;;;;23.69;44.45;100102.16;5092081;28;20054;-72
2023/10/06 03:37:53;;;;;;;5.70;2.72;;;;;;;23.71;44.41;100094.97;5092606;28;20112;-72
2023/10/06 03:40:43;;;;;;;4.22;2.25;;;;;;;23.70;44.35;100109.25;5092287;28;20024;-72
2023/10/06 03:43:12;;;;;;;3.55;2.03;;;;;;;23.71;44.66;100100.28;5091797;28;20027;-71
2023/10/06 03:45:40;;;;;;;3.45;1.85;;;;;;;23.69;44.32;100101.34;5092267;28;20077;-72
2023/10/06 03:48:11;;;;;;;4.22;2.00;;;;;;;23.69;44.57;100101.34;5092478;28;20020;-72
2023/10/06 03:50:38;;;;;;;4.45;2.03;;;;;;;23.68;44.54;100102.28;5092236;28;20031;-72
2023/10/06 03:53:07;;;;;;;4.13;1.92;;;;;;;23.68;44.70;100111.13;5092131;28;20032;-73
2023/10/06 03:55:40;;;;;;;3.88;2.20;;;;;;;23.64;44.60;100106.09;5091992;28;20119;-71
2023/10/06 03:58:07;;;;;;;4.55;2.22;;;;;;;23.67;44.46;100109.41;5092002;28;20024;-71
2023/10/06 04:00:38;;;;;;;3.75;2.20;;;;;;;23.67;44.49;100108.56;5092325;28;20036;-72
2023/10/06 04:03:13;;;;;;;5.35;2.20;;;;;;;23.65;44.47;100110.47;5091663;28;20048;-72
2023/10/06 04:05:44;;;;;;;4.18;2.22;;;;;;;23.63;44.35;100107.88;5092135;28;20038;-72
2023/10/06 04:08:15;;;;;;;5.05;2.30;;;;;;;23.60;44.50;100113.41;5091789;28;20103;-72
2023/10/06 04:10:57;;;;;;;3.72;2.00;;;;;;;23.61;44.39;100115.13;5091934;28;20024;-71
2023/10/06 04:13:24;;;;;;;4.03;2.10;;;;;;;23.62;44.42;100126.66;5091229;28;20026;-72
2023/10/06 04:15:50;;;;;;;5.13;2.60;;;;;;;23.62;44.27;100116.00;5091762;28;20035;-70
2023/10/06 04:18:21;;;;;;;3.97;2.08;;;;;;;23.61;44.49;100120.44;5091605;28;20429;-71
2023/10/06 04:20:47;;;;;;;3.88;2.20;;;;;;;23.59;44.55;100115.22;5091698;28;20078;-72
2023/10/06 04:23:14;;;;;;;4.28;2.40;;;;;;;23.57;44.57;100118.91;5091697;28;20028;-72
2023/10/06 04:25:40;;;;;;;5.32;2.05;;;;;;;23.60;44.37;100118.75;5091861;28;20035;-72
2023/10/06 04:28:11;;;;;;;3.63;1.98;;;;;;;23.58;44.51;100121.50;5091354;28;20020;-72
2023/10/06 04:30:37;;;;;;;3.83;2.03;;;;;;;23.60;44.23;100124.06;5091889;28;20115;-72
2023/10/06 04:33:05;;;;;;;4.72;2.47;;;;;;;23.59;44.57;100127.69;5090567;28;20114;-72
2023/10/06 04:35:32;;;;;;;4.22;2.30;;;;;;;23.59;44.41;100117.88;5091603;28;20032;-72
2023/10/06 04:37:59;;;;;;;4.18;2.20;;;;;;;23.60;44.46;100119.59;5091834;28;20049;-71
2023/10/06 04:40:25;;;;;;;5.25;2.30;;;;;;;23.59;44.36;100128.53;5091889;28;20028;-72
2023/10/06 04:42:50;;;;;;;4.10;2.33;;;;;;;23.60;44.15;100122.25;5091241;28;20025;-72
2023/10/06 04:45:16;;;;;;;4.05;2.25;;;;;;;23.56;44.37;100123.41;5091478;28;20020;-70
2023/10/06 04:47:44;;;;;;;4.18;2.08;;;;;;;23.54;44.33;100135.94;5089794;28;20012;-71
2023/10/06 04:50:11;;;;;;;6.45;2.35;;;;;;;23.52;44.25;100127.22;5091770;28;20078;-71
2023/10/06 04:52:39;;;;;;;5.20;2.20;;;;;;;23.54;44.33;100127.97;5091745;28;20034;-72
2023/10/06 04:55:11;;;;;;;3.95;2.25;;;;;;;23.54;44.37;100130.63;5091097;28;20105;-71
2023/10/06 04:57:36;;;;;;;5.00;2.33;;;;;;;23.51;44.51;100124.63;5090758;28;20496;-72
2023/10/06 05:00:13;;;;;;;4.55;2.38;;;;;;;23.52;44.47;100129.88;5091506;28;20026;-72
2023/10/06 05:02:38;;;;;;;4.20;2.22;;;;;;;23.51;44.50;100130.81;5090031;28;20043;-71
2023/10/06 05:05:09;;;;;;;4.68;2.33;;;;;;;23.47;44.29;100131.94;5091108;28;20031;-72
2023/10/06 05:07:36;;;;;;;5.10;2.60;;;;;;;23.46;44.57;100127.59;5090777;28;20036;-72
2023/10/06 05:10:02;;;;;;;3.67;1.95;;;;;;;23.50;44.32;100138.91;5090920;28;20434;-72
2023/10/06 05:12:27;;;;;;;4.82;2.40;;;;;;;23.50;44.32;100137.09;5091527;28;20104;-72
2023/10/06 05:14:53;;;;;;;4.75;2.13;;;;;;;23.48;44.28;100141.66;5093568;28;20383;-71
2023/10/06 05:17:21;;;;;;;3.15;1.60;;;;;;;23.46;44.29;100138.25;5095109;28;20027;-72
2023/10/06 05:19:48;;;;;;;4.65;2.35;;;;;;;23.47;44.38;100145.28;5095044;28;20024;-72
2023/10/06 05:22:14;;;;;;;4.40;2.40;;;;;;;23.48;44.28;100141.66;5094821;28;20028;-72
2023/10/06 05:24:40;;;;;;;4.28;2.00;;;;;;;23.43;44.45;100139.28;5094723;28;20027;-72
2023/10/06 05:27:05;;;;;;;2.88;1.75;;;;;;;23.40;44.46;100134.16;5095037;28;20663;-71
2023/10/06 05:29:35;;;;;;;4.65;1.92;;;;;;;23.39;44.32;100137.75;5094762;28;20017;-71
2023/10/06 05:32:02;;;;;;;4.03;2.30;;;;;;;23.40;44.31;100139.47;5094942;28;20078;-71
2023/10/06 05:34:29;;;;;;;5.40;2.05;;;;;;;23.38;44.40;100137.84;5094713;28;20025;-72
2023/10/06 05:36:55;;;;;;;5.68;2.38;;;;;;;23.35;44.40;100146.88;5094497;28;20081;-70
2023/10/06 05:39:21;;;;;;;4.28;2.25;;;;;;;23.33;44.18;100146.97;5097703;28;20023;-72
2023/10/06 05:41:47;;;;;;;4.68;2.55;;;;;;;23.36;44.61;100147.72;5115113;28;20398;-72
2023/10/06 05:44:13;;;;;;;4.43;2.30;;;;;;;23.33;44.38;100144.31;5115013;28;20049;-71
2023/10/06 05:46:41;;;;;;;5.20;2.58;;;;;;;23.29;44.26;100148.06;5104209;28;20031;-72
2023/10/06 05:49:11;;;;;;;3.90;2.00;;;;;;;23.31;44.48;100146.22;5094404;28;20020;-72
2023/10/06 05:51:38;;;;;;;4.78;1.85;;;;;;;23.30;44.17;100144.44;5094440;28;20111;-72
2023/10/06 05:54:09;;;;;;;4.38;1.92;;;;;;;23.31;44.21;100153.34;5094240;28;20028;-72
2023/10/06 05:56:37;;;;;;;5.10;2.28;;;;;;;23.29;44.38;100153.38;5094346;28;20111;-72
2023/10/06 05:59:05;;;;;;;4.95;2.30;;;;;;;23.26;44.17;100153.59;5094467;28;20051;-72
2023/10/06 06:01:34;;;;;;;3.95;1.98;;;;;;;23.26;44.42;100158.91;5094374;28;20024;-72
2023/10/06 06:04:08;;;;;;;4.10;2.13;;;;;;;23.24;44.48;100150.13;5094019;28;20051;-72
2023/10/06 06:06:36;;;;;;;4.25;2.10;;;;;;;23.28;44.34;100161.47;5094000;28;20044;-73
2023/10/06 06:09:04;;;;;;;4.85;2.35;;;;;;;23.24;44.31;100171.44;5093699;28;20028;-72
2023/10/06 06:11:31;;;;;;;4.10;2.33;;;;;;;23.26;44.26;100166.91;5094291;28;20384;-71
2023/10/06 06:13:57;;;;;;;5.18;2.28;;;;;;;23.23;44.29;100169.72;5093894;28;20357;-72
2023/10/06 06:16:24;;;;;;;4.65;2.55;;;;;;;23.22;44.32;100170.69;5094017;28;20085;-72
2023/10/06 06:18:50;;;;;;;4.25;2.30;;;;;;;23.19;44.40;100184.16;5094019;28;20023;-72
2023/10/06 06:21:16;;;;;;;3.88;2.28;;;;;;;23.17;44.31;100183.41;5094043;28;20053;-72
2023/10/06 06:23:46;;;;;;;4.45;2.20;;;;;;;23.15;44.39;100185.31;5093380;28;20024;-72
2023/10/06 06:26:11;;;;;;;4.10;2.20;;;;;;;23.15;44.25;100183.50;5094040;28;20021;-72
2023/10/06 06:28:37;;;;;;;4.38;2.22;;;;;;;23.18;44.53;100182.47;5093970;28;20388;-72
2023/10/06 06:31:04;;;;;;;5.00;2.63;;;;;;;23.20;44.25;100180.59;5093896;28;20024;-72
2023/10/06 06:33:32;;;;;;;4.53;2.30;;;;;;;23.18;44.28;100190.44;5093569;28;20020;-72
2023/10/06 06:36:00;;;;;;;4.03;2.25;;;;;;;23.17;44.38;100186.94;5093601;28;20024;-72
2023/10/06 06:38:25;;;;;;;4.00;1.90;;;;;;;23.20;44.36;100191.22;5093152;28;20154;-72
2023/10/06 06:40:50;;;;;;;5.03;2.17;;;;;;;23.18;44.50;100188.66;5093606;28;20099;-71
2023/10/06 06:43:19;;;;;;;4.47;2.47;;;;;;;23.18;44.39;100195.75;5093688;28;20379;-71
2023/10/06 06:45:45;;;;;;;4.15;2.17;;;;;;;23.18;44.47;100199.31;5093034;28;20020;-72
2023/10/06 06:48:16;;;;;;;4.53;2.17;;;;;;;23.17;44.51;100202.03;5092946;28;20049;-72
2023/10/06 06:50:43;;;;;;;6.78;2.33;;;;;;;23.18;44.26;100201.97;5093441;28;20031;-72
2023/10/06 06:53:09;;;;;;;4.55;2.17;;;;;;;23.16;44.26;100203.00;5092813;28;20016;-72
2023/10/06 06:55:36;;;;;;;5.70;2.30;;;;;;;23.18;44.39;100209.06;5092949;28;20032;-71
2023/10/06 06:58:06;;;;;;;4.72;2.30;;;;;;;23.18;44.45;100209.94;5093194;28;20564;-72
2023/10/06 07:00:35;;;;;;;4.18;2.03;;;;;;;23.18;44.18;100209.94;5093286;28;20024;-73
2023/10/06 07:03:01;;;;;;;4.47;2.22;;;;;;;23.18;44.44;100214.41;5092907;28;20036;-72
2023/10/06 07:05:26;;;;;;;4.10;1.92;;;;;;;23.18;44.57;100214.41;5092797;28;20443;-71
2023/10/06 07:07:52;;;;;;;5.57;2.38;;;;;;;23.21;44.30;100206.25;5092853;28;20023;-71
2023/10/06 07:10:22;;;;;;;4.43;2.15;;;;;;;23.22;44.30;100215.94;5092753;28;20020;-72
2023/10/06 07:12:52;;;;;;;4.05;2.15;;;;;;;23.22;44.32;100226.59;5092803;28;20062;-72
2023/10/06 07:15:19;;;;;;;4.07;2.08;;;;;;;23.22;44.35;100221.28;5092857;28;20435;-72
2023/10/06 07:17:53;;;;;;;4.00;2.42;;;;;;;23.23;44.38;100217.66;5092806;28;20450;-71
2023/10/06 07:20:26;;;;;;;4.07;2.13;;;;;;;23.23;44.30;100222.97;5092593;28;20024;-72
2023/10/06 07:22:53;;;;;;;3.95;2.15;;;;;;;23.22;44.47;100220.41;5092816;28;20400;-72
2023/10/06 07:25:19;;;;;;;4.60;2.33;;;;;;;23.20;44.35;100231.16;5092730;28;20028;-71
2023/10/06 07:27:46;;;;;;;4.40;2.13;;;;;;;23.20;44.45;100232.00;5092860;28;20433;-72
2023/10/06 07:30:14;;;;;;;5.10;2.30;;;;;;;23.19;44.68;100229.41;5092603;28;20046;-71
2023/10/06 07:32:44;;;;;;;5.18;2.60;;;;;;;23.18;44.39;100233.03;5092319;28;20093;-72
2023/10/06 07:35:11;;;;;;;4.18;1.90;;;;;;;23.18;44.33;100236.56;5092089;28;20036;-72
2023/10/06 07:37:38;;;;;;;4.60;2.30;;;;;;;23.18;44.58;100239.22;5092073;28;20070;-72
2023/10/06 07:40:06;;;;;;;4.32;2.03;;;;;;;23.20;44.35;100239.16;5092234;28;20024;-72
2023/10/06 07:42:32;;;;;;;4.47;2.15;;;;;;;23.20;44.41;100237.31;5092430;28;20024;-71
2023/10/06 07:44:57;;;;;;;4.40;2.25;;;;;;;23.19;44.17;100242.72;5092443;28;20463;-72
2023/10/06 07:47:24;;;;;;;5.47;2.60;;;;;;;23.23;44.36;100249.59;5092296;28;20032;-72
2023/10/06 07:49:50;;;;;;;4.65;2.50;;;;;;;23.20;44.48;100244.47;5092099;28;20028;-72
2023/10/06 07:52:17;;;;;;;5.88;2.45;;;;;;;23.21;44.45;100251.50;5092143;28;20028;-72
2023/10/06 07:54:43;;;;;;;6.65;2.30;;;;;;;23.19;44.24;100242.72;5092300;28;20161;-72
2023/10/06 07:57:12;;;;;;;4.57;2.20;;;;;;;23.20;44.33;100249.81;5092056;28;20073;-72
2023/10/06 07:59:38;;;;;;;5.10;2.30;;;;;;;23.20;44.32;100257.78;5092219;28;20019;-72
2023/10/06 08:02:04;;;;;;;4.75;2.22;;;;;;;23.21;44.39;100259.50;5092124;28;20020;-72
2023/10/06 08:04:29;;;;;;;5.43;2.28;;;;;;;23.21;44.33;100259.50;5091535;28;20107;-72
2023/10/06 08:06:54;;;;;;;5.32;2.42;;;;;;;23.17;44.64;100255.28;5091922;28;20031;-72
2023/10/06 08:09:21;;;;;;;5.25;2.60;;;;;;;23.21;44.45;100251.50;5091901;28;20043;-72
2023/10/06 08:11:48;;;;;;;4.70;2.40;;;;;;;23.18;44.63;100257.00;5092173;28;20077;-72
2023/10/06 08:14:13;;;;;;;5.43;2.40;;;;;;;23.17;44.64;100260.63;5092124;28;20093;-72
2023/10/06 08:16:40;;;;;;;6.15;2.70;;;;;;;23.20;44.63;100260.44;5091985;28;20480;-72
2023/10/06 08:19:06;;;;;;;4.97;2.15;;;;;;;23.21;44.74;100264.81;5091672;28;20020;-72
2023/10/06 08:21:31;;;;;;;5.43;2.65;;;;;;;23.21;44.77;100267.47;5091991;28;20399;-72
2023/10/06 08:23:56;;;;;;;4.43;2.30;;;;;;;23.23;44.53;100270.06;5092793;28;20036;-72
2023/10/06 08:26:22;;;;;;;4.80;2.30;;;;;;;23.18;44.77;100271.19;5109710;28;20031;-70
2023/10/06 08:28:49;;;;;;;4.47;2.47;;;;;;;23.21;44.67;100267.47;5109561;28;20106;-72
2023/10/06 08:31:15;;;;;;;4.75;2.60;;;;;;;23.21;44.41;100272.81;5091796;28;20032;-72
2023/10/06 08:33:41;;;;;;;5.85;2.63;;;;;;;23.18;44.68;100273.84;5091391;28;20024;-72
2023/10/06 08:36:08;;;;;;;4.78;2.45;;;;;;;23.20;44.52;100279.09;5090526;28;20032;-72
2023/10/06 08:38:33;;;;;;;5.63;2.65;;;;;;;23.23;44.68;100273.56;5091926;28;20055;-72
2023/10/06 08:41:03;;;;;;;4.97;2.60;;;;;;;23.23;44.63;100265.59;5091727;28;20105;-71
2023/10/06 08:43:29;;;;;;;5.93;2.13;;;;;;;23.22;44.87;100271.84;5091653;28;20510;-72
2023/10/06 08:45:59;;;;;;;4.18;2.30;;;;;;;23.22;44.79;100265.66;5091786;28;20035;-72
2023/10/06 08:48:32;;;;;;;4.13;2.15;;;;;;;23.22;44.74;100261.22;5091304;28;20464;-72
2023/10/06 08:50:59;;;;;;;4.30;2.28;;;;;;;23.26;44.72;100270.75;5075356;28;20020;-73
2023/10/06 08:53:31;;;;;;;4.55;2.47;;;;;;;23.23;44.73;100268.25;5075240;28;20016;-71
2023/10/06 08:55:57;;;;;;;4.15;2.20;;;;;;;23.22;44.89;100271.00;5075339;28;20028;-72
2023/10/06 08:58:26;;;;;;;4.80;2.22;;;;;;;23.22;44.82;100271.00;5075403;28;20020;-72
2023/10/06 09:00:52;;;;;;;3.80;2.42;;;;;;;23.22;44.92;100269.19;5093523;28;20020;-72
2023/10/06 09:03:20;;;;;;;5.82;2.38;;;;;;;23.21;44.69;100264.81;5094794;28;20569;-72
2023/10/06 09:05:46;;;;;;;5.00;2.10;;;;;;;23.23;44.88;100270.06;5095027;28;20016;-69
2023/10/06 09:08:15;;;;;;;4.63;2.58;;;;;;;23.25;44.99;100269.00;5095212;28;20043;-72
2023/10/06 09:10:49;;;;;;;4.68;2.28;;;;;;;23.26;44.87;100269.88;5094881;28;20024;-72
2023/10/06 09:13:16;;;;;;;5.10;2.42;;;;;;;23.24;44.79;100272.63;5095400;28;20034;-72
2023/10/06 09:15:43;;;;;;;4.47;2.70;;;;;;;23.24;45.00;100264.63;5094710;28;20028;-72
2023/10/06 09:18:18;;;;;;;4.10;2.30;;;;;;;23.26;44.72;100270.75;5094741;28;20396;-72
2023/10/06 09:20:45;;;;;;;4.63;2.17;;;;;;;23.28;44.90;100268.84;5095051;28;20035;-72
2023/10/06 09:23:11;;;;;;;4.05;2.15;;;;;;;23.29;44.75;100264.38;5094967;28;20266;-72
2023/10/06 09:25:45;;;;;;;4.07;2.05;;;;;;;23.29;45.01;100262.56;5094865;28;20031;-71
2023/10/06 09:28:13;;;;;;;4.93;2.40;;;;;;;23.30;44.88;100261.59;5094686;28;20031;-72
2023/10/06 09:30:57;;;;;;;4.18;2.30;;;;;;;23.31;44.82;100263.38;5094887;28;20059;-72
2023/10/06 09:33:40;;;;;;;4.20;2.45;;;;;;;23.31;44.96;100258.06;5094767;28;20024;-72
2023/10/06 09:36:07;;;;;;;5.65;2.63;;;;;;;23.32;44.94;100254.44;5094830;28;20063;-72
2023/10/06 09:38:36;;;;;;;5.25;2.30;;;;;;;23.33;44.89;100256.16;5093364;28;20028;-71
2023/10/06 09:41:03;;;;;;;4.20;2.30;;;;;;;23.37;44.98;100250.63;5094750;28;20024;-72
2023/10/06 09:43:33;;;;;;;3.92;2.10;;;;;;;23.38;44.66;100255.03;5094729;28;20016;-70
2023/10/06 09:46:06;;;;;;;5.28;2.40;;;;;;;23.40;44.78;100253.13;5093005;28;20020;-72
2023/10/06 09:48:37;;;;;;;5.03;2.58;;;;;;;23.40;44.96;100255.78;5094745;28;20067;-72
2023/10/06 09:51:08;;;;;;;4.13;2.03;;;;;;;23.44;44.86;100258.16;5094692;28;20020;-71
2023/10/06 09:53:38;;;;;;;4.63;2.63;;;;;;;23.45;44.69;100254.56;5094617;28;20024;-72
2023/10/06 09:56:06;;;;;;;4.93;2.50;;;;;;;23.46;44.88;100250.97;5094604;28;20385;-72
2023/10/06 09:58:32;;;;;;;4.65;2.40;;;;;;;23.47;44.82;100251.81;5094375;28;20023;-71
2023/10/06 10:01:00;;;;;;;4.32;2.20;;;;;;;23.48;44.92;100253.53;5093655;28;20504;-72
2023/10/06 10:03:27;;;;;;;4.80;2.33;;;;;;;23.50;44.92;100251.63;5094231;28;20048;-72
2023/10/06 10:05:53;;;;;;;4.93;2.40;;;;;;;23.49;44.66;100255.25;5093856;28;20031;-71
2023/10/06 10:08:22;;;;;;;5.15;2.85;;;;;;;23.50;44.92;100251.63;5094109;28;20024;-71
2023/10/06 10:10:52;;;;;;;4.45;2.45;;;;;;;23.51;44.83;100248.03;5094046;28;20024;-71
2023/10/06 10:13:51;;;;;;;4.25;2.20;;;;;;;23.52;44.65;100244.41;5093872;28;20040;-72
2023/10/06 10:16:41;;;;;;;4.82;2.70;;;;;;;23.54;44.70;100253.16;5093935;28;20035;-72
2023/10/06 10:19:11;;;;;;;5.53;2.70;;;;;;;23.56;44.51;100247.75;5093198;28;20032;-72
2023/10/06 10:21:37;;;;;;;5.93;2.35;;;;;;;23.56;44.88;100245.94;5093794;28;20062;-71
2023/10/06 10:24:09;;;;;;;4.95;2.33;;;;;;;23.57;44.68;100246.78;5093983;28;20028;-72
2023/10/06 10:26:37;;;;;;;5.70;2.42;;;;;;;23.56;44.94;100245.94;5093743;28;20440;-72
2023/10/06 10:29:18;;;;;;;4.93;2.20;;;;;;;23.58;44.79;100244.03;5093494;28;20024;-72
2023/10/06 10:31:47;;;;;;;5.95;2.60;;;;;;;23.59;44.73;100232.44;5097903;28;20058;-72
2023/10/06 10:34:23;;;;;;;4.45;2.15;;;;;;;23.61;44.79;100235.00;5107265;28;20020;-73
2023/10/06 10:37:08;;;;;;;5.25;2.35;;;;;;;23.62;44.58;100231.38;5093677;28;20028;-72
2023/10/06 10:39:55;;;;;;;5.22;2.38;;;;;;;23.63;44.66;100227.78;5093276;28;20024;-72
2023/10/06 10:42:35;;;;;;;6.03;2.70;;;;;;;23.64;44.78;100232.16;5093245;28;20564;-72
2023/10/06 10:45:44;;;;;;;5.70;2.90;;;;;;;23.66;44.60;100224.06;5091750;28;20016;-72
2023/10/06 10:48:14;;;;;;;4.85;2.38;;;;;;;23.69;44.49;100234.56;5093255;28;20115;-71
2023/10/06 10:51:12;;;;;;;3.88;2.33;;;;;;;23.69;44.55;100235.38;5093251;28;20492;-72
2023/10/06 10:53:43;;;;;;;4.78;2.40;;;;;;;23.70;44.38;100230.94;5093268;28;20425;-71
2023/10/06 10:56:26;;;;;;;4.43;2.33;;;;;;;23.72;44.38;100229.03;5092889;28;20051;-73
2023/10/06 10:58:53;;;;;;;5.65;2.33;;;;;;;23.72;44.56;100223.69;5091529;28;20507;-72
2023/10/06 11:01:31;;;;;;;4.18;2.28;;;;;;;23.73;44.69;100225.44;5092855;28;20579;-72
2023/10/06 11:04:18;;;;;;;5.45;2.33;;;;;;;23.75;44.48;100228.84;5072740;28;20049;-72
2023/10/06 11:06:49;;;;;;;;;;;;;;;23.76;44.53;100219.91;5073223;28;20035;-72
2023/10/06 11:09:29;;;;;;;4.97;2.22;;;;;;;23.77;44.75;100216.28;5076014;28;20007;-72
2023/10/06 11:12:00;;;;;;;4.95;2.65;;;;;;;23.78;44.49;100227.81;5092103;28;20028;-72
2023/10/06 11:14:27;;;;;;;5.25;2.53;;;;;;;23.79;44.52;100218.84;5092445;28;20020;-70
2023/10/06 11:17:05;;;;;;;5.35;2.50;;;;;;;23.80;44.56;100220.56;5093095;28;20035;-72
2023/10/06 11:19:32;;;;;;;5.38;2.38;;;;;;;23.81;44.28;100211.63;5092645;28;20012;-72
2023/10/06 11:22:10;;;;;;;4.32;2.38;;;;;;;23.83;44.29;100226.56;5091686;28;20471;-72
2023/10/06 11:24:36;;;;;;;4.85;2.40;;;;;;;23.83;44.32;100215.06;5092215;28;20396;-72
2023/10/06 11:27:22;;;;;;;5.93;3.03;;;;;;;23.86;44.58;100212.19;5091891;28;20103;-72
2023/10/06 11:29:51;;;;;;;5.60;2.57;;;;;;;23.87;44.50;100205.91;5092080;28;20514;-71
2023/10/06 11:32:17;;;;;;;4.82;2.28;;;;;;;23.87;44.34;100206.78;5092623;28;20032;-72
2023/10/06 11:34:44;;;;;;;3.40;2.13;;;;;;;23.90;44.47;100204.84;5092226;28;20024;-72
2023/10/06 11:37:11;;;;;;;4.70;2.55;;;;;;;23.92;44.50;100200.31;5091929;28;20081;-72
2023/10/06 11:39:37;;;;;;;4.43;2.10;;;;;;;23.94;44.57;100198.41;5092057;28;20097;-72
2023/10/06 11:42:30;;;;;;;4.45;1.90;;;;;;;23.94;44.54;100195.72;5092049;28;20024;-72
2023/10/06 11:44:59;;;;;;;4.72;2.40;;;;;;;23.96;44.38;100188.50;5089996;28;20411;-72